createdAt,value
2018-08-10T12:19:46.590Z,24.56
2018-08-10T12:22:16.756Z,25.56
2018-08-10T12:24:46.172Z,26.52
2018-08-10T12:27:16.277Z,27.56
2018-08-10T12:29:45.997Z,28.15
2018-08-10T12:32:27.543Z,28.33
2018-08-10T12:35:01.408Z,27.96
2018-08-10T12:37:31.145Z,27.54
2018-08-10T12:40:02.137Z,27.23
2018-08-10T12:42:32.556Z,27.21
2018-08-10T12:45:07.666Z,28.16
2018-08-10T12:47:38.128Z,29.31
2018-08-10T12:50:10.366Z,30.27
2018-08-10T12:52:44.731Z,31.38
2018-08-10T12:55:18.009Z,32.26
2018-08-10T12:57:49.674Z,32.68
2018-08-10T13:00:19.297Z,32.84
2018-08-10T13:02:54.823Z,33.36
2018-08-10T13:05:28.320Z,33.89
2018-08-10T13:08:02.670Z,34.01
2018-08-10T13:10:32.249Z,33.93
2018-08-10T13:13:06.657Z,33.05
2018-08-10T13:15:36.063Z,32.14
2018-08-10T13:18:06.831Z,31.32
2018-08-10T13:20:36.193Z,30.67
2018-08-10T13:23:06.772Z,30.03
2018-08-10T13:25:36.271Z,29.55
2018-08-10T13:28:06.101Z,29.26
2018-08-10T13:30:35.548Z,29.01
2018-08-10T13:33:05.426Z,28.75
2018-08-10T13:35:34.929Z,28.42
2018-08-10T13:38:04.466Z,28.07
2018-08-10T13:40:33.997Z,27.69
2018-08-10T13:43:05.754Z,26.93
2018-08-10T13:45:35.862Z,26.95
2018-08-10T13:48:06.463Z,26.73
2018-08-10T13:50:36.078Z,26.45
2018-08-10T13:53:09.539Z,26.46
2018-08-10T13:55:41.216Z,25.47
2018-08-10T13:58:26.205Z,25.37
